createdAt,value
2023-05-22T00:00:00.426Z,18.6
2023-05-22T00:02:00.685Z,18.6
2023-05-22T00:04:00.832Z,22.9
2023-05-22T00:06:00.520Z,18.1
2023-05-22T00:08:00.649Z,18.9
2023-05-22T00:10:00.939Z,22.0
2023-05-22T00:12:00.980Z,18.7
2023-05-22T00:14:00.755Z,19.0
2023-05-22T00:16:00.417Z,19.6
2023-05-22T00:18:00.594Z,20.4
2023-05-22T00:20:00.862Z,18.4
2023-05-22T00:22:00.876Z,18.8
2023-05-22T00:24:00.727Z,19.5
2023-05-22T00:26:00.380Z,18.9
2023-05-22T00:28:00.809Z,19.7
2023-05-22T00:30:00.865Z,23.8
2023-05-22T00:32:00.586Z,20.0
2023-05-22T00:34:00.987Z,19.0
2023-05-22T00:36:00.425Z,19.3
2023-05-22T00:38:02.602Z,20.5
2023-05-22T00:40:00.419Z,20.1
2023-05-22T00:42:00.580Z,18.8
2023-05-22T00:44:00.532Z,18.9
2023-05-22T00:46:00.898Z,19.4
2023-05-22T00:48:00.573Z,19.3
2023-05-22T00:50:01.055Z,19.3
2023-05-22T00:52:01.174Z,18.7
2023-05-22T00:54:00.900Z,19.1
2023-05-22T00:56:00.740Z,20.3
2023-05-22T00:58:04.070Z,20.6
2023-05-22T01:00:02.207Z,20.7
2023-05-22T01:02:00.736Z,20.7
2023-05-22T01:04:01.443Z,19.1
2023-05-22T01:06:00.454Z,19.9
2023-05-22T01:08:00.590Z,20.8
2023-05-22T01:10:00.931Z,22.6
2023-05-22T01:12:11.190Z,20.2
2023-05-22T01:14:06.720Z,20.1
2023-05-22T01:16:09.747Z,20.5
2023-05-22T01:18:09.732Z,19.3
2023-05-22T01:20:09.213Z,20.8
2023-05-22T01:22:11.756Z,20.9
2023-05-22T01:24:20.222Z,20.7
2023-05-22T01:26:20.227Z,20.1
2023-05-22T01:28:11.111Z,17.9
2023-05-22T01:30:19.686Z,19.6
2023-05-22T01:32:02.366Z,21.9
2023-05-22T01:34:03.626Z,21.4
2023-05-22T01:36:01.427Z,21.0
2023-05-22T01:38:02.265Z,19.4
2023-05-22T01:40:01.574Z,19.1
2023-05-22T01:42:00.750Z,20.6
2023-05-22T01:44:01.233Z,18.1
2023-05-22T01:46:00.794Z,17.7
2023-05-22T01:48:00.670Z,21.3
2023-05-22T01:50:00.919Z,19.2
2023-05-22T01:52:07.293Z,18.2
2023-05-22T01:54:08.093Z,19.9
2023-05-22T01:56:03.295Z,17.4
2023-05-22T01:58:09.403Z,18.2
2023-05-22T02:00:06.352Z,20.8
2023-05-22T02:02:05.249Z,16.2
2023-05-22T02:04:01.093Z,19.1
2023-05-22T02:06:06.056Z,17.9
2023-05-22T02:08:01.923Z,19.3
2023-05-22T02:10:01.600Z,18.0
2023-05-22T02:12:01.373Z,18.0
2023-05-22T02:14:00.669Z,17.4
2023-05-22T02:16:01.323Z,18.3
2023-05-22T02:18:01.058Z,16.2
2023-05-22T02:20:00.650Z,16.8
2023-05-22T02:22:00.974Z,17.1
2023-05-22T02:24:01.388Z,17.6
2023-05-22T02:26:00.751Z,17.9
2023-05-22T02:28:00.720Z,18.1
2023-05-22T02:30:00.933Z,16.7
2023-05-22T02:32:00.671Z,16.4
2023-05-22T02:34:00.975Z,16.6
2023-05-22T02:36:00.598Z,17.3
2023-05-22T02:38:01.136Z,17.1
2023-05-22T02:40:00.901Z,19.3
2023-05-22T02:42:00.561Z,17.9
2023-05-22T02:44:00.411Z,18.0
2023-05-22T02:46:00.732Z,16.0
2023-05-22T02:48:00.788Z,19.3
2023-05-22T02:50:00.544Z,18.4
2023-05-22T02:52:00.674Z,18.4
2023-05-22T02:54:00.640Z,16.9
2023-05-22T02:56:00.404Z,17.1
2023-05-22T02:58:01.093Z,17.8
2023-05-22T03:00:00.719Z,17.3
2023-05-22T03:02:00.711Z,17.7
2023-05-22T03:04:00.514Z,17.6
2023-05-22T03:06:01.089Z,18.4
2023-05-22T03:08:00.556Z,17.1
2023-05-22T03:10:00.770Z,18.3
2023-05-22T03:12:00.502Z,16.4
2023-05-22T03:14:00.397Z,17.8
2023-05-22T03:16:00.783Z,17.9
2023-05-22T03:18:00.604Z,19.7
2023-05-22T03:20:00.403Z,16.7
2023-05-22T03:22:00.859Z,18.2
2023-05-22T03:24:00.495Z,19.0
2023-05-22T03:26:00.436Z,17.6
2023-05-22T03:28:00.646Z,18.0
2023-05-22T03:30:00.600Z,17.3
2023-05-22T03:32:01.486Z,20.4
2023-05-22T03:34:01.080Z,18.9
2023-05-22T03:36:00.414Z,18.0
2023-05-22T03:38:00.537Z,18.0
2023-05-22T03:40:00.427Z,17.8
2023-05-22T03:42:00.608Z,19.6
2023-05-22T03:44:02.776Z,18.6
2023-05-22T03:46:00.576Z,19.1
2023-05-22T03:48:00.806Z,18.9
2023-05-22T03:50:00.864Z,19.4
2023-05-22T03:52:01.093Z,18.8
2023-05-22T03:54:00.420Z,18.9
2023-05-22T03:56:00.777Z,17.7
2023-05-22T03:58:00.735Z,19.3
2023-05-22T04:00:01.216Z,18.1
2023-05-22T04:02:00.536Z,20.1
2023-05-22T04:04:00.393Z,19.0
2023-05-22T04:06:00.662Z,17.5
2023-05-22T04:08:00.830Z,19.3
2023-05-22T04:10:00.392Z,19.9
2023-05-22T04:12:01.244Z,16.8
2023-05-22T04:14:02.548Z,19.3
2023-05-22T04:16:00.713Z,20.5
2023-05-22T04:18:00.650Z,16.7
2023-05-22T04:20:01.002Z,16.7
2023-05-22T04:22:00.578Z,19.4
2023-05-22T04:24:01.059Z,17.5
2023-05-22T04:26:00.427Z,21.7
2023-05-22T04:28:00.568Z,18.7
2023-05-22T04:30:01.877Z,19.1
2023-05-22T04:32:01.105Z,17.7
2023-05-22T04:34:00.476Z,18.8
2023-05-22T04:36:00.940Z,17.0
2023-05-22T04:38:00.881Z,18.8
2023-05-22T04:40:00.596Z,21.1
2023-05-22T04:42:00.597Z,18.9
2023-05-22T04:44:00.870Z,20.2
2023-05-22T04:46:00.408Z,18.9
2023-05-22T04:48:00.880Z,17.8
2023-05-22T04:50:01.437Z,19.2
2023-05-22T04:52:00.533Z,18.6
2023-05-22T04:54:00.460Z,19.3
2023-05-22T04:56:01.165Z,21.2
2023-05-22T04:58:00.746Z,19.2
2023-05-22T05:00:00.872Z,17.4
2023-05-22T05:02:00.793Z,17.7
2023-05-22T05:04:01.551Z,19.2
2023-05-22T05:06:00.568Z,20.4
2023-05-22T05:08:00.954Z,20.1
2023-05-22T05:10:00.800Z,19.1
2023-05-22T05:12:01.132Z,20.7
2023-05-22T05:14:00.917Z,21.2
2023-05-22T05:16:00.384Z,17.2
2023-05-22T05:18:00.616Z,18.7
2023-05-22T05:20:00.520Z,19.4
2023-05-22T05:22:00.504Z,17.6
2023-05-22T05:24:00.778Z,21.8
2023-05-22T05:26:00.417Z,21.3
2023-05-22T05:28:00.409Z,19.7
2023-05-22T05:30:00.421Z,19.3
2023-05-22T05:32:00.845Z,19.2
2023-05-22T05:34:00.439Z,17.2
2023-05-22T05:36:00.821Z,18.3
2023-05-22T05:38:00.729Z,19.4
2023-05-22T05:40:00.790Z,19.2
2023-05-22T05:42:00.855Z,21.0
2023-05-22T05:44:00.853Z,17.2
2023-05-22T05:46:00.798Z,18.6
2023-05-22T05:48:00.621Z,18.1
2023-05-22T05:50:00.693Z,19.2
2023-05-22T05:52:00.589Z,16.6
2023-05-22T05:54:02.891Z,18.1
2023-05-22T05:56:00.882Z,20.3
2023-05-22T05:58:00.607Z,18.6
2023-05-22T06:00:00.491Z,19.9
2023-05-22T06:02:00.600Z,18.8
2023-05-22T06:04:01.025Z,17.3
2023-05-22T06:06:00.887Z,18.0
2023-05-22T06:08:00.898Z,19.1
2023-05-22T06:10:00.679Z,18.5
2023-05-22T06:12:00.414Z,20.7
2023-05-22T06:14:01.019Z,19.6
2023-05-22T06:16:02.814Z,17.4
2023-05-22T06:18:00.800Z,18.3
2023-05-22T06:20:00.731Z,19.6
2023-05-22T06:22:00.959Z,17.3
2023-05-22T06:24:00.422Z,15.3
2023-05-22T06:26:00.684Z,15.8
2023-05-22T06:28:00.529Z,18.6
2023-05-22T06:30:00.608Z,18.5
2023-05-22T06:32:01.129Z,14.3
2023-05-22T06:34:00.889Z,18.3
2023-05-22T06:36:00.481Z,16.8
2023-05-22T06:38:00.440Z,15.8
2023-05-22T06:40:00.685Z,22.1
2023-05-22T06:42:00.957Z,28.1
2023-05-22T06:44:01.026Z,42.6
2023-05-22T06:46:03.547Z,17.7
2023-05-22T06:48:00.566Z,14.0
2023-05-22T06:52:02.211Z,14.9
2023-05-22T06:54:00.601Z,15.0
2023-05-22T06:56:00.727Z,16.3
2023-05-22T06:58:00.623Z,19.5
2023-05-22T07:00:00.476Z,14.3
2023-05-22T07:02:00.551Z,14.9
2023-05-22T07:04:02.031Z,14.4
2023-05-22T07:06:00.628Z,14.3
2023-05-22T07:08:00.887Z,14.2
2023-05-22T07:10:00.527Z,15.3
2023-05-22T07:12:00.497Z,16.9
2023-05-22T07:14:00.646Z,15.1
2023-05-22T07:16:01.003Z,13.5
2023-05-22T07:18:00.650Z,14.2
2023-05-22T07:20:00.978Z,15.8
2023-05-22T07:22:00.584Z,14.5
2023-05-22T07:24:01.091Z,13.0
2023-05-22T07:26:00.436Z,14.2
2023-05-22T07:28:00.854Z,13.0
2023-05-22T07:30:00.555Z,12.4
2023-05-22T07:32:00.910Z,14.0
2023-05-22T07:34:00.505Z,12.6
2023-05-22T07:36:00.732Z,14.4
2023-05-22T07:38:01.420Z,12.7
2023-05-22T07:40:01.030Z,13.2
2023-05-22T07:42:01.700Z,12.7
2023-05-22T07:44:00.865Z,13.9
2023-05-22T07:46:00.458Z,14.3
2023-05-22T07:48:00.862Z,11.8
2023-05-22T07:50:00.822Z,19.9
2023-05-22T07:52:01.505Z,16.8
2023-05-22T07:54:01.055Z,15.8
2023-05-22T07:56:02.736Z,12.2
2023-05-22T07:58:00.683Z,12.0
2023-05-22T08:00:00.506Z,11.8
2023-05-22T08:02:00.565Z,11.6
2023-05-22T08:04:00.735Z,11.1
2023-05-22T08:06:01.823Z,10.3
2023-05-22T08:08:00.839Z,13.0
2023-05-22T08:10:01.826Z,10.6
2023-05-22T08:12:00.495Z,10.4
2023-05-22T08:14:01.065Z,12.6
2023-05-22T08:16:01.554Z,10.2
2023-05-22T08:18:00.834Z,11.8
2023-05-22T08:20:01.365Z,11.5
2023-05-22T08:22:00.592Z,11.4
2023-05-22T08:24:01.072Z,12.7
2023-05-22T08:26:00.495Z,11.7
2023-05-22T08:28:01.129Z,11.9
2023-05-22T08:30:00.912Z,10.1
2023-05-22T08:32:01.680Z,10.5
2023-05-22T08:34:00.585Z,10.5
2023-05-22T08:36:00.921Z,13.3
2023-05-22T08:38:00.403Z,12.4
2023-05-22T08:40:00.658Z,11.9
2023-05-22T08:42:00.542Z,12.4
2023-05-22T08:44:01.330Z,11.2
2023-05-22T08:46:03.258Z,11.6
2023-05-22T08:48:03.758Z,10.8
2023-05-22T08:50:00.989Z,33.5
2023-05-22T08:52:06.728Z,14.6
2023-05-22T08:54:04.543Z,24.8
2023-05-22T08:56:01.984Z,11.9
2023-05-22T08:58:01.502Z,11.0
2023-05-22T09:00:00.560Z,12.1
2023-05-22T09:02:04.472Z,11.2
2023-05-22T09:04:01.969Z,11.6
2023-05-22T09:06:01.286Z,10.5
2023-05-22T09:08:16.061Z,13.7
2023-05-22T09:10:00.402Z,11.7
2023-05-22T09:12:00.636Z,13.0
2023-05-22T09:14:08.177Z,11.4
2023-05-22T09:16:08.482Z,12.1
2023-05-22T09:18:03.248Z,13.6
2023-05-22T09:20:00.440Z,14.3
2023-05-22T09:22:01.255Z,11.5
2023-05-22T09:24:00.441Z,11.0
2023-05-22T09:26:01.858Z,15.0
2023-05-22T09:28:00.719Z,10.4
2023-05-22T09:30:00.847Z,10.9
2023-05-22T09:32:00.883Z,11.3
2023-05-22T09:34:00.978Z,10.9
2023-05-22T09:36:00.544Z,9.7
2023-05-22T09:38:00.516Z,11.3
2023-05-22T09:40:04.266Z,11.1
2023-05-22T09:42:00.838Z,14.0
2023-05-22T09:44:02.121Z,10.3
2023-05-22T09:46:02.040Z,11.7
2023-05-22T09:48:00.613Z,12.4
2023-05-22T09:50:02.216Z,13.0
2023-05-22T09:52:03.181Z,9.1
2023-05-22T09:54:02.972Z,10.1
2023-05-22T09:56:04.308Z,12.0
2023-05-22T09:58:03.060Z,10.6
2023-05-22T10:00:03.058Z,10.9
2023-05-22T10:02:01.041Z,13.0
2023-05-22T10:04:03.244Z,11.4
2023-05-22T10:06:01.776Z,11.1
2023-05-22T10:08:08.745Z,10.5
2023-05-22T10:10:03.979Z,10.3
2023-05-22T10:12:05.270Z,10.7
2023-05-22T10:14:02.698Z,11.8
2023-05-22T10:16:02.560Z,11.4
2023-05-22T10:18:01.187Z,10.3
2023-05-22T10:20:02.207Z,12.3
2023-05-22T10:24:00.927Z,12.0
2023-05-22T10:26:01.232Z,16.2
2023-05-22T10:28:01.307Z,17.1
2023-05-22T10:30:09.760Z,8.7
2023-05-22T10:32:13.834Z,8.6
2023-05-22T10:34:03.626Z,9.8
2023-05-22T10:36:03.570Z,12.6
2023-05-22T10:38:19.352Z,9.8
2023-05-22T10:40:03.238Z,9.5
2023-05-22T10:42:00.789Z,8.9
2023-05-22T10:44:01.430Z,11.5
2023-05-22T10:46:01.719Z,9.4
2023-05-22T10:48:02.709Z,13.4
2023-05-22T10:50:03.894Z,11.2
2023-05-22T10:52:01.994Z,11.8
2023-05-22T10:54:00.960Z,9.5
2023-05-22T10:56:09.651Z,9.3
2023-05-22T10:58:11.842Z,11.5
2023-05-22T11:00:05.870Z,11.7
2023-05-22T11:02:00.652Z,10.9
2023-05-22T11:04:09.539Z,9.2
2023-05-22T11:06:00.400Z,9.0
2023-05-22T11:08:09.743Z,10.2
2023-05-22T11:10:00.444Z,11.4
2023-05-22T11:12:14.783Z,12.9
2023-05-22T11:14:01.117Z,12.2
2023-05-22T11:16:03.935Z,11.0
2023-05-22T11:18:02.361Z,11.8
2023-05-22T11:20:03.241Z,11.2
2023-05-22T11:22:02.209Z,10.1
2023-05-22T11:24:00.618Z,12.0
2023-05-22T11:26:18.227Z,11.8
2023-05-22T11:28:02.240Z,9.9
2023-05-22T11:30:00.818Z,9.9
2023-05-22T11:32:01.071Z,11.3
2023-05-22T11:34:01.001Z,10.9
2023-05-22T11:36:01.796Z,10.4
2023-05-22T11:38:03.835Z,12.8
2023-05-22T11:40:03.189Z,11.1
2023-05-22T11:42:00.605Z,11.1
2023-05-22T11:44:01.422Z,11.0
2023-05-22T11:46:04.886Z,13.6
2023-05-22T11:48:00.977Z,13.6
2023-05-22T11:50:00.830Z,10.2
2023-05-22T11:52:00.574Z,12.0
2023-05-22T11:54:00.546Z,11.8
2023-05-22T11:56:01.470Z,31.3
2023-05-22T11:58:02.192Z,43.8
2023-05-22T12:00:00.846Z,21.6
2023-05-22T12:02:01.209Z,10.7
2023-05-22T12:04:00.629Z,9.8
2023-05-22T12:06:00.901Z,10.2
2023-05-22T12:08:01.044Z,9.5
2023-05-22T12:10:00.840Z,9.9
2023-05-22T12:12:00.598Z,10.6
2023-05-22T12:14:01.743Z,11.2
2023-05-22T12:16:00.885Z,9.6
2023-05-22T12:18:00.553Z,9.5
2023-05-22T12:20:00.715Z,9.1
2023-05-22T12:22:03.504Z,9.6
2023-05-22T12:24:02.871Z,8.7
2023-05-22T12:26:01.786Z,8.9
2023-05-22T12:28:00.747Z,8.9
2023-05-22T12:30:08.340Z,7.7
2023-05-22T12:32:01.913Z,9.0
2023-05-22T12:34:03.210Z,8.9
2023-05-22T12:36:06.514Z,9.3
2023-05-22T12:38:00.581Z,8.6
2023-05-22T12:40:03.236Z,7.9
2023-05-22T12:42:01.190Z,7.8
2023-05-22T12:44:01.277Z,10.7
2023-05-22T12:46:02.729Z,10.0
2023-05-22T12:48:00.445Z,10.0
2023-05-22T12:50:01.222Z,11.0
2023-05-22T12:52:01.193Z,10.8
2023-05-22T12:54:01.581Z,11.6
2023-05-22T12:56:00.690Z,10.3
2023-05-22T12:58:01.077Z,11.0
2023-05-22T13:00:06.566Z,27.9
2023-05-22T13:06:00.914Z,10.6
2023-05-22T13:08:01.132Z,9.1
2023-05-22T13:10:02.376Z,14.7
2023-05-22T13:12:00.635Z,11.0
2023-05-22T13:14:00.438Z,10.5
2023-05-22T13:16:00.590Z,9.3
2023-05-22T13:18:01.079Z,10.1
2023-05-22T13:20:00.826Z,11.4
2023-05-22T13:22:00.525Z,12.4
2023-05-22T13:24:00.477Z,8.6
2023-05-22T13:26:01.112Z,10.9
2023-05-22T13:28:00.853Z,10.2
2023-05-22T13:30:00.808Z,9.5
2023-05-22T13:32:01.084Z,8.9
2023-05-22T13:34:02.445Z,11.6
2023-05-22T13:36:00.690Z,10.1
2023-05-22T13:38:00.915Z,10.0
2023-05-22T13:40:00.689Z,14.6
2023-05-22T13:42:00.780Z,77.0
2023-05-22T13:44:00.734Z,10.5
2023-05-22T13:46:00.410Z,10.8
2023-05-22T13:48:01.134Z,14.4
2023-05-22T13:50:00.634Z,11.4
2023-05-22T13:52:00.886Z,11.8
2023-05-22T13:54:01.133Z,12.6
2023-05-22T13:56:00.794Z,12.1
2023-05-22T13:58:01.022Z,11.6
2023-05-22T14:00:01.085Z,12.6
2023-05-22T14:02:00.666Z,13.5
2023-05-22T14:04:00.403Z,12.0
2023-05-22T14:06:00.609Z,12.9
2023-05-22T14:08:00.917Z,11.9
2023-05-22T14:10:01.742Z,12.3
2023-05-22T14:12:01.174Z,11.9
2023-05-22T14:14:00.453Z,12.3
2023-05-22T14:16:00.436Z,14.4
2023-05-22T14:18:00.716Z,16.5
2023-05-22T14:20:01.291Z,13.6
2023-05-22T14:22:00.678Z,18.3
2023-05-22T14:24:01.014Z,15.5
2023-05-22T14:26:00.468Z,16.3
2023-05-22T14:28:00.982Z,16.1
2023-05-22T14:30:00.590Z,22.6
2023-05-22T14:32:02.659Z,23.1
2023-05-22T14:34:00.394Z,20.9
2023-05-22T14:36:01.019Z,16.5
2023-05-22T14:38:00.448Z,15.0
2023-05-22T14:40:00.398Z,14.9
2023-05-22T14:42:00.808Z,14.4
2023-05-22T14:44:00.972Z,11.1
2023-05-22T14:46:00.383Z,15.3
2023-05-22T14:48:00.591Z,22.6
2023-05-22T14:50:14.703Z,10.2
2023-05-22T14:52:00.653Z,11.7
2023-05-22T14:54:00.724Z,9.5
2023-05-22T14:56:00.716Z,12.0
2023-05-22T14:58:00.611Z,11.6
2023-05-22T15:00:00.860Z,10.6
2023-05-22T15:02:00.473Z,10.5
2023-05-22T15:04:00.566Z,11.1
2023-05-22T15:06:00.396Z,12.4
2023-05-22T15:08:00.894Z,12.7
2023-05-22T15:10:00.410Z,12.4
2023-05-22T15:12:00.628Z,10.9
2023-05-22T15:14:00.875Z,16.6
2023-05-22T15:16:00.569Z,16.8
2023-05-22T15:18:00.849Z,17.2
2023-05-22T15:20:00.791Z,17.1
2023-05-22T15:22:08.821Z,19.2
2023-05-22T15:24:00.796Z,25.9
2023-05-22T15:26:00.484Z,20.9
2023-05-22T15:28:00.733Z,23.5
2023-05-22T15:30:00.650Z,25.7
2023-05-22T15:32:01.107Z,20.4
2023-05-22T15:34:00.536Z,13.7
2023-05-22T15:36:00.883Z,11.5
2023-05-22T15:38:00.542Z,36.6
2023-05-22T15:40:00.977Z,32.4
2023-05-22T15:42:06.357Z,15.5
2023-05-22T15:44:00.962Z,13.1
2023-05-22T15:46:00.587Z,14.3
2023-05-22T15:48:01.485Z,15.3
2023-05-22T15:50:00.408Z,15.1
2023-05-22T15:52:01.405Z,14.4
2023-05-22T15:54:00.578Z,12.0
2023-05-22T15:56:00.878Z,10.3
2023-05-22T15:58:01.668Z,12.7
2023-05-22T16:00:00.594Z,13.5
2023-05-22T16:02:00.466Z,17.7
2023-05-22T16:04:00.710Z,19.1
2023-05-22T16:06:00.721Z,14.4
2023-05-22T16:08:00.940Z,20.5
2023-05-22T16:10:00.681Z,19.0
2023-05-22T16:12:01.035Z,19.5
2023-05-22T16:14:00.421Z,13.3
2023-05-22T16:16:00.709Z,12.6
2023-05-22T16:18:00.729Z,14.6
2023-05-22T16:20:00.849Z,19.1
2023-05-22T16:22:00.595Z,15.2
2023-05-22T16:24:00.420Z,25.4
2023-05-22T16:26:00.602Z,18.7
2023-05-22T16:28:01.068Z,20.6
2023-05-22T16:30:00.381Z,17.6
2023-05-22T16:32:00.914Z,17.0
2023-05-22T16:34:00.609Z,16.6
2023-05-22T16:36:00.714Z,12.2
2023-05-22T16:38:00.553Z,13.6
2023-05-22T16:40:00.785Z,15.3
2023-05-22T16:42:00.702Z,12.2
2023-05-22T16:44:00.807Z,12.6
2023-05-22T16:46:00.431Z,14.5
2023-05-22T16:48:01.016Z,13.6
2023-05-22T16:50:01.032Z,14.2
2023-05-22T16:52:00.493Z,12.5
2023-05-22T16:54:00.510Z,13.7
2023-05-22T16:56:00.852Z,12.9
2023-05-22T16:58:00.647Z,11.9
2023-05-22T17:00:00.448Z,13.7
2023-05-22T17:02:00.909Z,14.2
2023-05-22T17:04:00.464Z,13.9
2023-05-22T17:06:00.437Z,11.7
2023-05-22T17:08:00.856Z,12.1
2023-05-22T17:10:00.590Z,11.5
2023-05-22T17:12:00.562Z,12.2
2023-05-22T17:14:00.724Z,14.4
2023-05-22T17:16:00.529Z,12.9
2023-05-22T17:18:00.524Z,13.6
2023-05-22T17:20:00.927Z,14.2
2023-05-22T17:22:00.921Z,15.3
2023-05-22T17:24:00.398Z,15.1
2023-05-22T17:26:00.598Z,14.3
2023-05-22T17:28:00.459Z,15.7
2023-05-22T17:30:00.898Z,15.2
2023-05-22T17:32:00.751Z,14.5
2023-05-22T17:34:00.506Z,14.1
2023-05-22T17:36:00.398Z,12.2
2023-05-22T17:38:00.552Z,12.9
2023-05-22T17:40:00.591Z,13.5
2023-05-22T17:42:00.814Z,12.3
2023-05-22T17:44:00.934Z,13.2
2023-05-22T17:46:00.943Z,11.6
2023-05-22T17:48:00.690Z,11.6
2023-05-22T17:50:00.587Z,10.4
2023-05-22T17:52:00.434Z,9.7
2023-05-22T17:54:00.406Z,10.0
2023-05-22T17:56:00.879Z,10.0
2023-05-22T17:58:00.554Z,10.7
2023-05-22T18:00:00.545Z,10.2
2023-05-22T18:02:00.932Z,10.8
2023-05-22T18:04:00.620Z,11.3
2023-05-22T18:06:00.435Z,10.8
2023-05-22T18:08:00.932Z,10.4
2023-05-22T18:10:00.789Z,12.8
2023-05-22T18:12:00.404Z,12.7
2023-05-22T18:14:00.628Z,11.9
2023-05-22T18:16:00.798Z,12.0
2023-05-22T18:18:01.396Z,13.2
2023-05-22T18:20:00.965Z,12.4
2023-05-22T18:22:00.991Z,12.4
2023-05-22T18:24:00.551Z,11.3
2023-05-22T18:26:00.574Z,13.0
2023-05-22T18:28:00.529Z,14.1
2023-05-22T18:30:00.665Z,13.9
2023-05-22T18:32:00.990Z,10.8
2023-05-22T18:34:00.385Z,19.5
2023-05-22T18:36:00.372Z,38.7
2023-05-22T18:38:00.620Z,45.9
2023-05-22T18:40:00.957Z,35.2
2023-05-22T18:42:00.703Z,24.0
2023-05-22T18:44:00.872Z,13.7
2023-05-22T18:46:00.451Z,13.0
2023-05-22T18:48:00.602Z,15.0
2023-05-22T18:50:00.544Z,12.6
2023-05-22T18:52:00.596Z,11.8
2023-05-22T18:54:00.748Z,11.5
2023-05-22T18:56:00.643Z,12.6
2023-05-22T18:58:00.396Z,14.0
2023-05-22T19:00:00.573Z,15.3
2023-05-22T19:02:00.598Z,17.1
2023-05-22T19:04:00.528Z,12.4
2023-05-22T19:06:00.610Z,12.7
2023-05-22T19:08:00.872Z,12.9
2023-05-22T19:10:00.512Z,10.4
2023-05-22T19:12:00.760Z,15.4
2023-05-22T19:14:00.900Z,15.4
2023-05-22T19:16:01.681Z,12.1
2023-05-22T19:18:01.104Z,15.5
2023-05-22T19:20:01.078Z,14.6
2023-05-22T19:22:00.613Z,13.5
2023-05-22T19:24:00.445Z,14.6
2023-05-22T19:26:00.708Z,15.6
2023-05-22T19:28:00.584Z,16.2
2023-05-22T19:30:01.077Z,14.4
2023-05-22T19:32:00.569Z,13.9
2023-05-22T19:34:00.852Z,13.2
2023-05-22T19:36:00.479Z,15.2
2023-05-22T19:38:00.623Z,14.9
2023-05-22T19:40:00.556Z,14.1
2023-05-22T19:42:00.734Z,16.1
2023-05-22T19:44:01.021Z,15.5
2023-05-22T19:46:00.658Z,15.7
2023-05-22T19:48:00.539Z,15.1
2023-05-22T19:50:00.844Z,17.1
2023-05-22T19:52:00.704Z,18.5
2023-05-22T19:54:00.863Z,20.5
2023-05-22T19:56:00.871Z,21.5
2023-05-22T19:58:00.576Z,23.4
2023-05-22T20:00:00.659Z,23.1
2023-05-22T20:02:00.617Z,26.4
2023-05-22T20:04:00.603Z,24.4
2023-05-22T20:06:00.806Z,23.9
2023-05-22T20:08:00.832Z,23.1
2023-05-22T20:10:00.597Z,27.7
2023-05-22T20:12:00.572Z,24.5
2023-05-22T20:14:00.506Z,29.0
2023-05-22T20:16:00.897Z,29.4
2023-05-22T20:18:00.671Z,27.0
2023-05-22T20:20:00.453Z,25.8
2023-05-22T20:22:00.413Z,27.5
2023-05-22T20:24:02.052Z,25.9
2023-05-22T20:26:00.412Z,26.1
2023-05-22T20:28:01.911Z,28.9
2023-05-22T20:30:00.911Z,36.1
2023-05-22T20:32:01.092Z,39.1
2023-05-22T20:34:00.649Z,46.7
2023-05-22T20:36:00.496Z,46.5
2023-05-22T20:38:00.903Z,50.1
2023-05-22T20:40:00.747Z,56.0
2023-05-22T20:42:00.755Z,62.7
2023-05-22T20:44:00.878Z,65.4
2023-05-22T20:46:00.578Z,68.7
2023-05-22T20:48:00.583Z,76.7
2023-05-22T20:50:00.416Z,76.8
2023-05-22T20:52:01.182Z,82.4
2023-05-22T20:54:00.408Z,89.9
2023-05-22T20:56:00.843Z,102.3
2023-05-22T20:58:00.726Z,96.6
2023-05-22T21:00:00.920Z,108.6
2023-05-22T21:02:01.247Z,106.5
2023-05-22T21:04:00.568Z,104.8
2023-05-22T21:06:00.576Z,103.8
2023-05-22T21:08:00.974Z,100.9
2023-05-22T21:10:00.406Z,105.6
2023-05-22T21:12:01.418Z,104.2
2023-05-22T21:14:00.397Z,105.0
2023-05-22T21:16:00.569Z,105.3
2023-05-22T21:18:00.626Z,105.5
2023-05-22T21:20:00.975Z,104.3
2023-05-22T21:22:01.690Z,103.9
2023-05-22T21:24:00.751Z,106.3
2023-05-22T21:26:00.782Z,104.5
2023-05-22T21:28:00.967Z,102.2
2023-05-22T21:30:00.463Z,102.0
2023-05-22T21:32:00.885Z,104.7
2023-05-22T21:34:00.389Z,101.5
2023-05-22T21:36:00.622Z,102.8
2023-05-22T21:38:00.548Z,96.6
2023-05-22T21:40:00.835Z,105.2
2023-05-22T21:42:00.390Z,100.6
2023-05-22T21:44:00.701Z,95.3
2023-05-22T21:46:00.385Z,91.5
2023-05-22T21:48:00.882Z,103.1
2023-05-22T21:50:00.674Z,94.3
2023-05-22T21:52:00.624Z,99.1
2023-05-22T21:54:00.901Z,97.4
2023-05-22T21:56:00.855Z,98.6
2023-05-22T21:58:00.836Z,100.6
2023-05-22T22:00:00.508Z,96.7
2023-05-22T22:02:00.595Z,94.2
2023-05-22T22:04:00.801Z,95.6
2023-05-22T22:06:00.380Z,96.2
2023-05-22T22:08:00.846Z,95.6
2023-05-22T22:10:00.816Z,89.7
2023-05-22T22:12:00.420Z,94.9
2023-05-22T22:14:00.402Z,97.2
2023-05-22T22:16:00.914Z,91.0
2023-05-22T22:18:01.151Z,88.9
2023-05-22T22:20:01.023Z,95.8
2023-05-22T22:22:00.561Z,89.2
2023-05-22T22:24:00.556Z,88.3
2023-05-22T22:26:00.742Z,91.8
2023-05-22T22:28:00.758Z,92.0
2023-05-22T22:30:00.405Z,88.6
2023-05-22T22:32:01.026Z,87.8
2023-05-22T22:34:00.520Z,89.4
2023-05-22T22:36:00.752Z,90.7
2023-05-22T22:38:00.466Z,90.7
2023-05-22T22:40:01.115Z,94.4
2023-05-22T22:42:00.415Z,96.4
2023-05-22T22:44:00.570Z,98.3
2023-05-22T22:46:00.754Z,95.9
2023-05-22T22:48:00.721Z,91.4
2023-05-22T22:50:00.509Z,89.5
2023-05-22T22:52:00.788Z,88.3
2023-05-22T22:54:00.402Z,97.7
2023-05-22T22:56:01.029Z,96.0
2023-05-22T22:58:00.529Z,91.5
2023-05-22T23:00:00.711Z,88.4
2023-05-22T23:02:00.751Z,90.0
2023-05-22T23:04:00.424Z,90.4
2023-05-22T23:06:00.545Z,95.4
2023-05-22T23:08:00.567Z,91.3
2023-05-22T23:10:00.642Z,94.2
2023-05-22T23:12:00.865Z,95.2
2023-05-22T23:14:00.852Z,93.9
2023-05-22T23:16:00.451Z,96.6
2023-05-22T23:18:00.670Z,96.4
2023-05-22T23:20:00.827Z,99.8
2023-05-22T23:22:00.404Z,95.9
2023-05-22T23:24:01.791Z,93.4
2023-05-22T23:26:00.482Z,90.0
2023-05-22T23:28:00.452Z,90.2
2023-05-22T23:30:00.406Z,93.6
2023-05-22T23:32:00.919Z,90.0
2023-05-22T23:34:00.488Z,85.2
2023-05-22T23:36:00.623Z,79.6
2023-05-22T23:38:00.559Z,81.5
2023-05-22T23:40:00.457Z,75.0
2023-05-22T23:42:00.615Z,67.9
2023-05-22T23:44:00.864Z,69.9
2023-05-22T23:46:00.537Z,64.2
2023-05-22T23:48:00.613Z,65.9
2023-05-22T23:50:00.556Z,67.1
2023-05-22T23:52:00.589Z,63.3
2023-05-22T23:54:00.458Z,58.3
2023-05-22T23:56:00.926Z,54.3
2023-05-22T23:58:00.393Z,54.5
